sensor_id;sensor_type;location;lat;lon;timestamp;P1;durP1;ratioP1;P2;durP2;ratioP2
27127;SDS011;14660;49.008;8.390;2023-01-31T00:01:52;12.27;;;4.70;;
27127;SDS011;14660;49.008;8.390;2023-01-31T00:04:19;8.13;;;4.78;;
27127;SDS011;14660;49.008;8.390;2023-01-31T00:06:45;11.13;;;6.18;;
27127;SDS011;14660;49.008;8.390;2023-01-31T00:09:15;10.52;;;4.72;;
27127;SDS011;14660;49.008;8.390;2023-01-31T00:11:42;6.47;;;4.97;;
27127;SDS011;14660;49.008;8.390;2023-01-31T00:14:11;7.88;;;4.35;;
27127;SDS011;14660;49.008;8.390;2023-01-31T00:16:43;7.25;;;4.70;;
27127;SDS011;14660;49.008;8.390;2023-01-31T00:19:10;9.80;;;6.15;;
27127;SDS011;14660;49.008;8.390;2023-01-31T00:21:37;8.32;;;5.00;;
27127;SDS011;14660;49.008;8.390;2023-01-31T00:24:07;9.57;;;5.07;;
27127;SDS011;14660;49.008;8.390;2023-01-31T00:26:37;6.72;;;4.43;;
27127;SDS011;14660;49.008;8.390;2023-01-31T00:29:04;8.10;;;4.38;;
27127;SDS011;14660;49.008;8.390;2023-01-31T00:31:33;8.95;;;4.07;;
27127;SDS011;14660;49.008;8.390;2023-01-31T00:34:00;6.60;;;3.90;;
27127;SDS011;14660;49.008;8.390;2023-01-31T00:36:31;8.15;;;5.05;;
27127;SDS011;14660;49.008;8.390;2023-01-31T00:38:59;7.70;;;4.30;;
27127;SDS011;14660;49.008;8.390;2023-01-31T00:41:28;8.18;;;4.53;;
27127;SDS011;14660;49.008;8.390;2023-01-31T00:43:57;6.68;;;4.55;;
27127;SDS011;14660;49.008;8.390;2023-01-31T00:46:23;7.75;;;4.72;;
27127;SDS011;14660;49.008;8.390;2023-01-31T00:48:50;6.85;;;4.43;;
27127;SDS011;14660;49.008;8.390;2023-01-31T00:51:17;9.75;;;4.75;;
27127;SDS011;14660;49.008;8.390;2023-01-31T00:53:43;7.60;;;4.85;;
27127;SDS011;14660;49.008;8.390;2023-01-31T00:56:13;9.77;;;5.10;;
27127;SDS011;14660;49.008;8.390;2023-01-31T00:58:44;9.45;;;4.80;;
27127;SDS011;14660;49.008;8.390;2023-01-31T01:01:19;5.80;;;3.83;;
27127;SDS011;14660;49.008;8.390;2023-01-31T01:03:49;6.47;;;4.03;;
27127;SDS011;14660;49.008;8.390;2023-01-31T01:06:14;6.00;;;4.05;;
27127;SDS011;14660;49.008;8.390;2023-01-31T01:08:42;6.32;;;4.47;;
27127;SDS011;14660;49.008;8.390;2023-01-31T01:11:18;8.15;;;5.00;;
27127;SDS011;14660;49.008;8.390;2023-01-31T01:14:05;8.02;;;4.47;;
27127;SDS011;14660;49.008;8.390;2023-01-31T01:16:37;7.95;;;3.90;;
27127;SDS011;14660;49.008;8.390;2023-01-31T01:19:06;9.30;;;5.15;;
27127;SDS011;14660;49.008;8.390;2023-01-31T01:21:38;7.85;;;4.93;;
27127;SDS011;14660;49.008;8.390;2023-01-31T01:24:07;5.97;;;5.35;;
27127;SDS011;14660;49.008;8.390;2023-01-31T01:26:36;8.02;;;5.55;;
27127;SDS011;14660;49.008;8.390;2023-01-31T01:29:04;8.05;;;5.22;;
27127;SDS011;14660;49.008;8.390;2023-01-31T01:31:31;7.75;;;4.95;;
27127;SDS011;14660;49.008;8.390;2023-01-31T01:33:59;7.25;;;4.95;;
27127;SDS011;14660;49.008;8.390;2023-01-31T01:36:34;8.95;;;5.03;;
27127;SDS011;14660;49.008;8.390;2023-01-31T01:39:02;12.07;;;5.57;;
27127;SDS011;14660;49.008;8.390;2023-01-31T01:41:31;8.05;;;4.63;;
27127;SDS011;14660;49.008;8.390;2023-01-31T01:43:59;5.78;;;4.05;;
27127;SDS011;14660;49.008;8.390;2023-01-31T01:52:01;7.82;;;4.72;;
27127;SDS011;14660;49.008;8.390;2023-01-31T01:54:35;8.57;;;4.53;;
27127;SDS011;14660;49.008;8.390;2023-01-31T01:57:10;7.13;;;4.65;;
27127;SDS011;14660;49.008;8.390;2023-01-31T01:59:44;7.53;;;5.25;;
27127;SDS011;14660;49.008;8.390;2023-01-31T02:02:17;9.80;;;5.63;;
27127;SDS011;14660;49.008;8.390;2023-01-31T02:04:45;7.53;;;5.18;;
27127;SDS011;14660;49.008;8.390;2023-01-31T02:07:14;9.50;;;5.95;;
27127;SDS011;14660;49.008;8.390;2023-01-31T02:09:49;6.00;;;5.20;;
27127;SDS011;14660;49.008;8.390;2023-01-31T02:12:38;7.78;;;4.78;;
27127;SDS011;14660;49.008;8.390;2023-01-31T02:15:07;10.88;;;4.93;;
27127;SDS011;14660;49.008;8.390;2023-01-31T02:17:34;8.07;;;5.15;;
27127;SDS011;14660;49.008;8.390;2023-01-31T02:34:51;9.07;;;7.03;;
27127;SDS011;14660;49.008;8.390;2023-01-31T02:40:51;9.53;;;5.80;;
27127;SDS011;14660;49.008;8.390;2023-01-31T02:43:56;9.30;;;6.15;;
27127;SDS011;14660;49.008;8.390;2023-01-31T02:49:52;11.38;;;6.05;;
27127;SDS011;14660;49.008;8.390;2023-01-31T02:56:07;11.00;;;6.40;;
27127;SDS011;14660;49.008;8.390;2023-01-31T03:02:00;13.50;;;6.32;;
27127;SDS011;14660;49.008;8.390;2023-01-31T03:04:32;10.57;;;6.50;;
27127;SDS011;14660;49.008;8.390;2023-01-31T03:07:03;13.60;;;7.07;;
27127;SDS011;14660;49.008;8.390;2023-01-31T03:19:35;12.35;;;6.55;;
27127;SDS011;14660;49.008;8.390;2023-01-31T03:24:49;13.48;;;6.70;;
27127;SDS011;14660;49.008;8.390;2023-01-31T03:27:18;14.27;;;7.28;;
27127;SDS011;14660;49.008;8.390;2023-01-31T03:29:46;9.32;;;6.20;;
27127;SDS011;14660;49.008;8.390;2023-01-31T03:32:22;14.93;;;6.97;;
27127;SDS011;14660;49.008;8.390;2023-01-31T03:34:53;13.02;;;8.00;;
27127;SDS011;14660;49.008;8.390;2023-01-31T03:43:38;13.32;;;8.50;;
27127;SDS011;14660;49.008;8.390;2023-01-31T03:46:33;15.27;;;7.72;;
27127;SDS011;14660;49.008;8.390;2023-01-31T03:49:06;14.32;;;7.50;;
27127;SDS011;14660;49.008;8.390;2023-01-31T03:51:37;14.07;;;8.85;;
27127;SDS011;14660;49.008;8.390;2023-01-31T03:54:31;15.45;;;8.70;;
27127;SDS011;14660;49.008;8.390;2023-01-31T03:57:02;13.40;;;7.43;;
27127;SDS011;14660;49.008;8.390;2023-01-31T03:59:48;14.45;;;7.10;;
27127;SDS011;14660;49.008;8.390;2023-01-31T04:02:22;13.60;;;7.85;;
27127;SDS011;14660;49.008;8.390;2023-01-31T04:07:48;10.50;;;7.13;;
27127;SDS011;14660;49.008;8.390;2023-01-31T04:10:17;12.73;;;7.55;;
27127;SDS011;14660;49.008;8.390;2023-01-31T04:12:45;14.20;;;7.97;;
27127;SDS011;14660;49.008;8.390;2023-01-31T04:15:13;18.05;;;7.45;;
27127;SDS011;14660;49.008;8.390;2023-01-31T04:17:39;13.85;;;7.40;;
27127;SDS011;14660;49.008;8.390;2023-01-31T04:20:10;13.27;;;7.05;;
27127;SDS011;14660;49.008;8.390;2023-01-31T04:22:38;13.55;;;7.65;;
27127;SDS011;14660;49.008;8.390;2023-01-31T04:25:05;14.18;;;8.30;;
27127;SDS011;14660;49.008;8.390;2023-01-31T04:27:33;16.98;;;9.00;;
27127;SDS011;14660;49.008;8.390;2023-01-31T04:30:00;14.88;;;7.88;;
27127;SDS011;14660;49.008;8.390;2023-01-31T04:32:27;13.45;;;7.10;;
27127;SDS011;14660;49.008;8.390;2023-01-31T04:34:54;13.43;;;7.75;;
27127;SDS011;14660;49.008;8.390;2023-01-31T04:37:21;11.73;;;7.60;;
27127;SDS011;14660;49.008;8.390;2023-01-31T04:39:48;11.73;;;7.53;;
27127;SDS011;14660;49.008;8.390;2023-01-31T04:42:15;13.27;;;7.60;;
27127;SDS011;14660;49.008;8.390;2023-01-31T04:44:42;12.45;;;6.90;;
27127;SDS011;14660;49.008;8.390;2023-01-31T04:47:09;13.00;;;7.70;;
27127;SDS011;14660;49.008;8.390;2023-01-31T04:49:36;13.85;;;7.75;;
27127;SDS011;14660;49.008;8.390;2023-01-31T04:52:02;11.90;;;7.18;;
27127;SDS011;14660;49.008;8.390;2023-01-31T04:54:28;12.48;;;7.22;;
27127;SDS011;14660;49.008;8.390;2023-01-31T04:56:55;14.63;;;7.45;;
27127;SDS011;14660;49.008;8.390;2023-01-31T04:59:21;13.43;;;8.05;;
27127;SDS011;14660;49.008;8.390;2023-01-31T05:01:47;14.45;;;9.35;;
27127;SDS011;14660;49.008;8.390;2023-01-31T05:04:17;20.77;;;10.18;;
27127;SDS011;14660;49.008;8.390;2023-01-31T05:06:47;15.13;;;8.32;;
27127;SDS011;14660;49.008;8.390;2023-01-31T05:09:14;14.65;;;8.23;;
27127;SDS011;14660;49.008;8.390;2023-01-31T05:11:43;18.00;;;9.00;;
27127;SDS011;14660;49.008;8.390;2023-01-31T05:14:11;14.77;;;8.55;;
27127;SDS011;14660;49.008;8.390;2023-01-31T05:16:39;16.67;;;9.75;;
27127;SDS011;14660;49.008;8.390;2023-01-31T05:19:05;14.40;;;7.63;;
27127;SDS011;14660;49.008;8.390;2023-01-31T05:21:32;14.65;;;8.90;;
27127;SDS011;14660;49.008;8.390;2023-01-31T05:24:21;14.05;;;8.30;;
27127;SDS011;14660;49.008;8.390;2023-01-31T05:26:51;16.17;;;7.45;;
27127;SDS011;14660;49.008;8.390;2023-01-31T05:29:21;14.30;;;7.85;;
27127;SDS011;14660;49.008;8.390;2023-01-31T05:31:51;13.43;;;7.93;;
27127;SDS011;14660;49.008;8.390;2023-01-31T05:34:19;13.70;;;7.82;;
27127;SDS011;14660;49.008;8.390;2023-01-31T05:36:47;16.10;;;9.52;;
27127;SDS011;14660;49.008;8.390;2023-01-31T05:39:14;13.30;;;8.10;;
27127;SDS011;14660;49.008;8.390;2023-01-31T05:41:41;15.50;;;8.68;;
27127;SDS011;14660;49.008;8.390;2023-01-31T05:44:08;16.38;;;8.05;;
27127;SDS011;14660;49.008;8.390;2023-01-31T05:46:36;15.82;;;9.95;;
27127;SDS011;14660;49.008;8.390;2023-01-31T05:49:02;16.33;;;8.68;;
27127;SDS011;14660;49.008;8.390;2023-01-31T05:51:30;15.00;;;8.63;;
27127;SDS011;14660;49.008;8.390;2023-01-31T05:53:57;17.00;;;8.73;;
27127;SDS011;14660;49.008;8.390;2023-01-31T05:56:24;16.70;;;8.43;;
27127;SDS011;14660;49.008;8.390;2023-01-31T05:58:50;17.85;;;9.48;;
27127;SDS011;14660;49.008;8.390;2023-01-31T06:01:18;19.05;;;10.38;;
27127;SDS011;14660;49.008;8.390;2023-01-31T06:03:46;18.27;;;10.45;;
27127;SDS011;14660;49.008;8.390;2023-01-31T06:06:12;20.45;;;8.95;;
27127;SDS011;14660;49.008;8.390;2023-01-31T06:08:40;21.73;;;9.30;;
27127;SDS011;14660;49.008;8.390;2023-01-31T06:11:10;21.38;;;12.70;;
27127;SDS011;14660;49.008;8.390;2023-01-31T06:13:38;21.95;;;10.80;;
27127;SDS011;14660;49.008;8.390;2023-01-31T06:16:06;23.30;;;10.45;;
27127;SDS011;14660;49.008;8.390;2023-01-31T06:18:33;19.85;;;10.95;;
27127;SDS011;14660;49.008;8.390;2023-01-31T06:21:00;19.50;;;11.85;;
27127;SDS011;14660;49.008;8.390;2023-01-31T06:23:27;20.63;;;10.05;;
27127;SDS011;14660;49.008;8.390;2023-01-31T06:25:54;21.02;;;9.43;;
27127;SDS011;14660;49.008;8.390;2023-01-31T06:28:21;22.70;;;11.25;;
27127;SDS011;14660;49.008;8.390;2023-01-31T06:30:49;20.42;;;10.25;;
27127;SDS011;14660;49.008;8.390;2023-01-31T06:33:16;18.80;;;10.65;;
27127;SDS011;14660;49.008;8.390;2023-01-31T06:35:43;21.05;;;10.35;;
27127;SDS011;14660;49.008;8.390;2023-01-31T06:38:09;28.25;;;10.98;;
27127;SDS011;14660;49.008;8.390;2023-01-31T06:40:40;19.63;;;11.82;;
27127;SDS011;14660;49.008;8.390;2023-01-31T06:43:07;19.60;;;12.07;;
27127;SDS011;14660;49.008;8.390;2023-01-31T06:45:33;23.35;;;10.25;;
27127;SDS011;14660;49.008;8.390;2023-01-31T06:48:02;24.33;;;11.85;;
27127;SDS011;14660;49.008;8.390;2023-01-31T06:50:29;24.75;;;11.77;;
27127;SDS011;14660;49.008;8.390;2023-01-31T06:52:56;23.23;;;11.48;;
27127;SDS011;14660;49.008;8.390;2023-01-31T06:55:24;24.25;;;11.63;;
27127;SDS011;14660;49.008;8.390;2023-01-31T06:57:50;23.50;;;11.18;;
27127;SDS011;14660;49.008;8.390;2023-01-31T07:00:18;23.92;;;10.95;;
27127;SDS011;14660;49.008;8.390;2023-01-31T07:02:45;27.00;;;11.80;;
27127;SDS011;14660;49.008;8.390;2023-01-31T07:05:13;23.40;;;11.25;;
27127;SDS011;14660;49.008;8.390;2023-01-31T07:07:40;18.80;;;11.50;;
27127;SDS011;14660;49.008;8.390;2023-01-31T07:10:07;17.77;;;9.48;;
27127;SDS011;14660;49.008;8.390;2023-01-31T07:12:35;20.33;;;10.68;;
27127;SDS011;14660;49.008;8.390;2023-01-31T07:15:02;21.20;;;10.77;;
27127;SDS011;14660;49.008;8.390;2023-01-31T07:17:30;16.58;;;9.45;;
27127;SDS011;14660;49.008;8.390;2023-01-31T07:19:58;24.92;;;13.10;;
27127;SDS011;14660;49.008;8.390;2023-01-31T07:22:24;18.23;;;11.65;;
27127;SDS011;14660;49.008;8.390;2023-01-31T07:24:53;21.55;;;10.48;;
27127;SDS011;14660;49.008;8.390;2023-01-31T07:27:20;19.05;;;10.00;;
27127;SDS011;14660;49.008;8.390;2023-01-31T07:29:47;21.55;;;10.82;;
27127;SDS011;14660;49.008;8.390;2023-01-31T07:32:15;20.30;;;10.15;;
27127;SDS011;14660;49.008;8.390;2023-01-31T07:34:41;16.52;;;9.48;;
27127;SDS011;14660;49.008;8.390;2023-01-31T07:37:08;15.43;;;8.82;;
27127;SDS011;14660;49.008;8.390;2023-01-31T07:39:35;17.15;;;10.35;;
27127;SDS011;14660;49.008;8.390;2023-01-31T07:42:03;18.50;;;10.07;;
27127;SDS011;14660;49.008;8.390;2023-01-31T07:44:29;21.30;;;9.52;;
27127;SDS011;14660;49.008;8.390;2023-01-31T07:46:57;16.50;;;9.38;;
27127;SDS011;14660;49.008;8.390;2023-01-31T07:49:24;20.77;;;10.15;;
27127;SDS011;14660;49.008;8.390;2023-01-31T07:51:50;19.70;;;9.93;;
27127;SDS011;14660;49.008;8.390;2023-01-31T07:54:17;20.70;;;9.60;;
27127;SDS011;14660;49.008;8.390;2023-01-31T07:56:42;16.02;;;9.20;;
27127;SDS011;14660;49.008;8.390;2023-01-31T07:59:11;20.27;;;9.48;;
27127;SDS011;14660;49.008;8.390;2023-01-31T08:01:38;17.75;;;9.63;;
27127;SDS011;14660;49.008;8.390;2023-01-31T08:04:24;16.33;;;9.73;;
27127;SDS011;14660;49.008;8.390;2023-01-31T08:06:52;16.73;;;8.57;;
27127;SDS011;14660;49.008;8.390;2023-01-31T08:09:20;13.50;;;7.97;;
27127;SDS011;14660;49.008;8.390;2023-01-31T08:11:47;19.38;;;9.68;;
27127;SDS011;14660;49.008;8.390;2023-01-31T08:14:14;16.48;;;9.43;;
27127;SDS011;14660;49.008;8.390;2023-01-31T08:16:39;14.88;;;8.73;;
27127;SDS011;14660;49.008;8.390;2023-01-31T08:19:08;16.48;;;8.52;;
27127;SDS011;14660;49.008;8.390;2023-01-31T08:21:34;16.60;;;8.85;;
27127;SDS011;14660;49.008;8.390;2023-01-31T08:24:01;17.80;;;8.27;;
27127;SDS011;14660;49.008;8.390;2023-01-31T08:26:28;14.68;;;8.13;;
27127;SDS011;14660;49.008;8.390;2023-01-31T08:28:55;19.52;;;9.70;;
27127;SDS011;14660;49.008;8.390;2023-01-31T08:31:23;18.55;;;9.25;;
27127;SDS011;14660;49.008;8.390;2023-01-31T08:33:52;15.10;;;8.45;;
27127;SDS011;14660;49.008;8.390;2023-01-31T08:39:05;14.45;;;7.90;;
27127;SDS011;14660;49.008;8.390;2023-01-31T08:41:32;17.50;;;9.32;;
27127;SDS011;14660;49.008;8.390;2023-01-31T08:44:04;14.32;;;7.93;;
27127;SDS011;14660;49.008;8.390;2023-01-31T08:46:32;15.77;;;8.57;;
27127;SDS011;14660;49.008;8.390;2023-01-31T08:48:59;15.80;;;8.40;;
27127;SDS011;14660;49.008;8.390;2023-01-31T08:51:28;14.82;;;7.35;;
27127;SDS011;14660;49.008;8.390;2023-01-31T08:53:56;13.95;;;7.68;;
27127;SDS011;14660;49.008;8.390;2023-01-31T08:56:24;17.05;;;7.43;;
27127;SDS011;14660;49.008;8.390;2023-01-31T08:58:51;14.77;;;8.45;;
27127;SDS011;14660;49.008;8.390;2023-01-31T09:01:19;15.30;;;8.38;;
27127;SDS011;14660;49.008;8.390;2023-01-31T09:03:48;15.20;;;9.18;;
27127;SDS011;14660;49.008;8.390;2023-01-31T09:06:20;13.98;;;8.05;;
27127;SDS011;14660;49.008;8.390;2023-01-31T09:08:49;15.10;;;8.02;;
27127;SDS011;14660;49.008;8.390;2023-01-31T09:11:16;13.98;;;7.45;;
27127;SDS011;14660;49.008;8.390;2023-01-31T09:13:44;16.13;;;8.27;;
27127;SDS011;14660;49.008;8.390;2023-01-31T09:16:13;14.25;;;7.95;;
27127;SDS011;14660;49.008;8.390;2023-01-31T09:18:40;17.60;;;8.60;;
27127;SDS011;14660;49.008;8.390;2023-01-31T09:21:08;12.75;;;8.25;;
27127;SDS011;14660;49.008;8.390;2023-01-31T09:23:38;13.15;;;6.95;;
27127;SDS011;14660;49.008;8.390;2023-01-31T09:26:05;12.57;;;6.80;;
27127;SDS011;14660;49.008;8.390;2023-01-31T09:28:32;13.65;;;8.27;;
27127;SDS011;14660;49.008;8.390;2023-01-31T09:31:03;16.40;;;8.90;;
27127;SDS011;14660;49.008;8.390;2023-01-31T09:33:32;15.38;;;7.78;;
27127;SDS011;14660;49.008;8.390;2023-01-31T09:36:00;12.60;;;6.68;;
27127;SDS011;14660;49.008;8.390;2023-01-31T09:38:31;19.30;;;7.85;;
27127;SDS011;14660;49.008;8.390;2023-01-31T09:41:00;12.70;;;7.63;;
27127;SDS011;14660;49.008;8.390;2023-01-31T09:43:36;18.27;;;9.07;;
27127;SDS011;14660;49.008;8.390;2023-01-31T09:46:11;19.88;;;8.40;;
27127;SDS011;14660;49.008;8.390;2023-01-31T09:48:44;24.08;;;9.65;;
27127;SDS011;14660;49.008;8.390;2023-01-31T09:51:14;15.82;;;8.93;;
27127;SDS011;14660;49.008;8.390;2023-01-31T09:53:42;16.05;;;8.02;;
27127;SDS011;14660;49.008;8.390;2023-01-31T10:02:29;15.52;;;8.15;;
27127;SDS011;14660;49.008;8.390;2023-01-31T10:10:51;18.88;;;8.55;;
27127;SDS011;14660;49.008;8.390;2023-01-31T10:19:21;13.68;;;7.63;;
27127;SDS011;14660;49.008;8.390;2023-01-31T10:21:55;16.85;;;8.38;;
27127;SDS011;14660;49.008;8.390;2023-01-31T10:27:34;13.07;;;8.35;;
27127;SDS011;14660;49.008;8.390;2023-01-31T10:30:02;12.80;;;7.80;;
27127;SDS011;14660;49.008;8.390;2023-01-31T10:32:34;12.68;;;7.93;;
27127;SDS011;14660;49.008;8.390;2023-01-31T10:35:27;15.15;;;7.63;;
27127;SDS011;14660;49.008;8.390;2023-01-31T10:38:29;13.43;;;7.80;;
27127;SDS011;14660;49.008;8.390;2023-01-31T10:41:06;14.13;;;7.75;;
27127;SDS011;14660;49.008;8.390;2023-01-31T10:46:46;14.13;;;7.55;;
27127;SDS011;14660;49.008;8.390;2023-01-31T10:49:13;14.63;;;7.68;;
27127;SDS011;14660;49.008;8.390;2023-01-31T10:57:57;12.43;;;7.03;;
27127;SDS011;14660;49.008;8.390;2023-01-31T11:00:28;14.52;;;7.75;;
27127;SDS011;14660;49.008;8.390;2023-01-31T11:02:57;11.73;;;6.32;;
27127;SDS011;14660;49.008;8.390;2023-01-31T11:05:25;13.68;;;6.80;;
27127;SDS011;14660;49.008;8.390;2023-01-31T11:07:55;9.35;;;5.45;;
27127;SDS011;14660;49.008;8.390;2023-01-31T11:10:31;13.07;;;6.82;;
27127;SDS011;14660;49.008;8.390;2023-01-31T11:12:59;11.68;;;5.53;;
27127;SDS011;14660;49.008;8.390;2023-01-31T11:15:33;10.43;;;5.57;;
27127;SDS011;14660;49.008;8.390;2023-01-31T11:18:03;14.57;;;6.10;;
27127;SDS011;14660;49.008;8.390;2023-01-31T11:23:23;13.60;;;6.40;;
27127;SDS011;14660;49.008;8.390;2023-01-31T11:25:52;8.90;;;5.85;;
27127;SDS011;14660;49.008;8.390;2023-01-31T11:31:07;11.70;;;6.15;;
27127;SDS011;14660;49.008;8.390;2023-01-31T11:33:56;10.65;;;5.97;;
27127;SDS011;14660;49.008;8.390;2023-01-31T11:36:34;13.48;;;6.40;;
27127;SDS011;14660;49.008;8.390;2023-01-31T11:42:13;12.85;;;5.80;;
27127;SDS011;14660;49.008;8.390;2023-01-31T11:44:53;10.43;;;6.88;;
27127;SDS011;14660;49.008;8.390;2023-01-31T11:47:48;13.48;;;6.82;;
27127;SDS011;14660;49.008;8.390;2023-01-31T11:55:53;13.85;;;6.80;;
27127;SDS011;14660;49.008;8.390;2023-01-31T11:58:30;10.18;;;6.28;;
27127;SDS011;14660;49.008;8.390;2023-01-31T12:03:55;13.98;;;5.90;;
27127;SDS011;14660;49.008;8.390;2023-01-31T12:09:21;10.82;;;5.63;;
27127;SDS011;14660;49.008;8.390;2023-01-31T12:11:52;10.73;;;5.78;;
27127;SDS011;14660;49.008;8.390;2023-01-31T12:14:25;11.70;;;6.80;;
27127;SDS011;14660;49.008;8.390;2023-01-31T12:17:02;11.48;;;5.18;;
27127;SDS011;14660;49.008;8.390;2023-01-31T12:22:35;16.17;;;5.93;;
27127;SDS011;14660;49.008;8.390;2023-01-31T12:46:22;9.30;;;4.75;;
27127;SDS011;14660;49.008;8.390;2023-01-31T13:03:57;15.10;;;5.40;;
27127;SDS011;14660;49.008;8.390;2023-01-31T13:06:33;12.07;;;5.10;;
27127;SDS011;14660;49.008;8.390;2023-01-31T13:11:57;14.23;;;6.78;;
27127;SDS011;14660;49.008;8.390;2023-01-31T13:17:53;9.15;;;5.75;;
27127;SDS011;14660;49.008;8.390;2023-01-31T13:23:31;9.93;;;6.05;;
27127;SDS011;14660;49.008;8.390;2023-01-31T13:37:52;7.80;;;4.25;;
27127;SDS011;14660;49.008;8.390;2023-01-31T13:40:25;8.85;;;3.88;;
27127;SDS011;14660;49.008;8.390;2023-01-31T13:42:59;8.83;;;4.30;;
27127;SDS011;14660;49.008;8.390;2023-01-31T13:45:32;9.55;;;4.95;;
27127;SDS011;14660;49.008;8.390;2023-01-31T13:48:07;9.63;;;4.60;;
27127;SDS011;14660;49.008;8.390;2023-01-31T13:50:49;10.98;;;5.70;;
27127;SDS011;14660;49.008;8.390;2023-01-31T13:53:26;10.95;;;5.35;;
27127;SDS011;14660;49.008;8.390;2023-01-31T13:56:00;14.05;;;7.25;;
27127;SDS011;14660;49.008;8.390;2023-01-31T13:58:33;7.90;;;5.47;;
27127;SDS011;14660;49.008;8.390;2023-01-31T14:15:50;10.50;;;4.00;;
27127;SDS011;14660;49.008;8.390;2023-01-31T14:21:42;4.50;;;3.15;;
27127;SDS011;14660;49.008;8.390;2023-01-31T15:11:50;7.88;;;5.30;;
27127;SDS011;14660;49.008;8.390;2023-01-31T15:17:11;10.30;;;4.45;;
27127;SDS011;14660;49.008;8.390;2023-01-31T15:19:52;10.00;;;4.65;;
27127;SDS011;14660;49.008;8.390;2023-01-31T15:22:24;9.10;;;4.65;;
27127;SDS011;14660;49.008;8.390;2023-01-31T15:24:53;11.50;;;4.82;;
27127;SDS011;14660;49.008;8.390;2023-01-31T15:27:27;8.90;;;5.00;;
27127;SDS011;14660;49.008;8.390;2023-01-31T15:44:28;8.23;;;4.75;;
27127;SDS011;14660;49.008;8.390;2023-01-31T15:46:54;7.95;;;4.72;;
27127;SDS011;14660;49.008;8.390;2023-01-31T15:55:05;9.05;;;5.35;;
27127;SDS011;14660;49.008;8.390;2023-01-31T15:57:35;8.00;;;4.20;;
27127;SDS011;14660;49.008;8.390;2023-01-31T16:00:07;9.18;;;5.53;;
27127;SDS011;14660;49.008;8.390;2023-01-31T16:02:41;10.10;;;4.50;;
27127;SDS011;14660;49.008;8.390;2023-01-31T16:05:13;7.43;;;4.03;;
27127;SDS011;14660;49.008;8.390;2023-01-31T16:07:46;12.60;;;4.85;;
27127;SDS011;14660;49.008;8.390;2023-01-31T16:10:14;10.02;;;5.63;;
27127;SDS011;14660;49.008;8.390;2023-01-31T16:12:51;9.20;;;4.65;;
27127;SDS011;14660;49.008;8.390;2023-01-31T16:15:26;6.40;;;4.00;;
27127;SDS011;14660;49.008;8.390;2023-01-31T16:17:59;8.50;;;4.72;;
27127;SDS011;14660;49.008;8.390;2023-01-31T16:26:11;11.10;;;4.97;;
27127;SDS011;14660;49.008;8.390;2023-01-31T16:28:51;11.40;;;5.10;;
27127;SDS011;14660;49.008;8.390;2023-01-31T16:31:26;7.30;;;4.35;;
27127;SDS011;14660;49.008;8.390;2023-01-31T16:33:58;9.57;;;4.97;;
27127;SDS011;14660;49.008;8.390;2023-01-31T16:42:21;9.30;;;5.32;;
27127;SDS011;14660;49.008;8.390;2023-01-31T16:44:51;11.70;;;6.00;;
27127;SDS011;14660;49.008;8.390;2023-01-31T16:53:28;10.50;;;5.35;;
27127;SDS011;14660;49.008;8.390;2023-01-31T16:58:43;12.90;;;5.68;;
27127;SDS011;14660;49.008;8.390;2023-01-31T17:01:32;11.05;;;5.55;;
27127;SDS011;14660;49.008;8.390;2023-01-31T17:07:02;6.82;;;4.47;;
27127;SDS011;14660;49.008;8.390;2023-01-31T17:09:32;8.85;;;4.53;;
27127;SDS011;14660;49.008;8.390;2023-01-31T17:12:00;7.75;;;4.07;;
27127;SDS011;14660;49.008;8.390;2023-01-31T17:14:27;8.63;;;4.40;;
27127;SDS011;14660;49.008;8.390;2023-01-31T17:16:54;7.35;;;5.10;;
27127;SDS011;14660;49.008;8.390;2023-01-31T17:19:21;7.63;;;4.93;;
27127;SDS011;14660;49.008;8.390;2023-01-31T17:21:48;8.00;;;4.82;;
27127;SDS011;14660;49.008;8.390;2023-01-31T17:24:16;10.25;;;4.43;;
27127;SDS011;14660;49.008;8.390;2023-01-31T17:26:44;7.30;;;5.00;;
27127;SDS011;14660;49.008;8.390;2023-01-31T17:29:12;8.40;;;4.47;;
27127;SDS011;14660;49.008;8.390;2023-01-31T17:31:39;8.27;;;4.20;;
27127;SDS011;14660;49.008;8.390;2023-01-31T17:34:14;9.10;;;4.75;;
27127;SDS011;14660;49.008;8.390;2023-01-31T17:36:43;7.15;;;4.53;;
27127;SDS011;14660;49.008;8.390;2023-01-31T17:39:10;8.52;;;4.82;;
27127;SDS011;14660;49.008;8.390;2023-01-31T17:41:37;11.00;;;4.38;;
27127;SDS011;14660;49.008;8.390;2023-01-31T17:44:06;6.97;;;4.75;;
27127;SDS011;14660;49.008;8.390;2023-01-31T17:46:34;9.93;;;4.70;;
27127;SDS011;14660;49.008;8.390;2023-01-31T17:49:00;7.43;;;4.95;;
27127;SDS011;14660;49.008;8.390;2023-01-31T17:51:28;8.20;;;5.30;;
27127;SDS011;14660;49.008;8.390;2023-01-31T17:53:55;9.57;;;4.82;;
27127;SDS011;14660;49.008;8.390;2023-01-31T17:56:22;8.70;;;5.82;;
27127;SDS011;14660;49.008;8.390;2023-01-31T17:58:49;11.13;;;5.30;;
27127;SDS011;14660;49.008;8.390;2023-01-31T18:01:17;9.90;;;4.45;;
27127;SDS011;14660;49.008;8.390;2023-01-31T18:03:44;6.20;;;3.88;;
27127;SDS011;14660;49.008;8.390;2023-01-31T18:06:11;13.52;;;5.55;;
27127;SDS011;14660;49.008;8.390;2023-01-31T18:08:38;10.30;;;5.47;;
27127;SDS011;14660;49.008;8.390;2023-01-31T18:11:10;9.05;;;5.00;;
27127;SDS011;14660;49.008;8.390;2023-01-31T18:13:40;8.32;;;4.13;;
27127;SDS011;14660;49.008;8.390;2023-01-31T18:18:54;9.27;;;5.63;;
27127;SDS011;14660;49.008;8.390;2023-01-31T18:21:21;8.98;;;5.13;;
27127;SDS011;14660;49.008;8.390;2023-01-31T18:23:48;8.77;;;4.63;;
27127;SDS011;14660;49.008;8.390;2023-01-31T18:26:17;7.55;;;5.20;;
27127;SDS011;14660;49.008;8.390;2023-01-31T18:28:44;13.57;;;8.10;;
27127;SDS011;14660;49.008;8.390;2023-01-31T18:31:10;13.48;;;7.70;;
27127;SDS011;14660;49.008;8.390;2023-01-31T18:33:40;22.98;;;10.25;;
27127;SDS011;14660;49.008;8.390;2023-01-31T18:36:13;8.47;;;5.90;;
27127;SDS011;14660;49.008;8.390;2023-01-31T18:38:48;17.55;;;7.32;;
27127;SDS011;14660;49.008;8.390;2023-01-31T18:41:17;21.65;;;11.57;;
27127;SDS011;14660;49.008;8.390;2023-01-31T18:43:44;11.57;;;7.47;;
27127;SDS011;14660;49.008;8.390;2023-01-31T18:46:13;12.20;;;6.47;;
27127;SDS011;14660;49.008;8.390;2023-01-31T18:48:41;11.15;;;6.75;;
27127;SDS011;14660;49.008;8.390;2023-01-31T18:51:10;7.50;;;4.57;;
27127;SDS011;14660;49.008;8.390;2023-01-31T18:53:39;11.35;;;5.45;;
27127;SDS011;14660;49.008;8.390;2023-01-31T18:56:10;6.95;;;4.43;;
27127;SDS011;14660;49.008;8.390;2023-01-31T18:58:39;6.68;;;4.25;;
27127;SDS011;14660;49.008;8.390;2023-01-31T19:01:09;8.18;;;4.68;;
27127;SDS011;14660;49.008;8.390;2023-01-31T19:03:38;7.47;;;4.30;;
27127;SDS011;14660;49.008;8.390;2023-01-31T19:06:07;7.78;;;4.15;;
27127;SDS011;14660;49.008;8.390;2023-01-31T19:08:38;8.63;;;4.82;;
27127;SDS011;14660;49.008;8.390;2023-01-31T19:11:09;10.82;;;4.88;;
27127;SDS011;14660;49.008;8.390;2023-01-31T19:13:39;6.13;;;4.43;;
27127;SDS011;14660;49.008;8.390;2023-01-31T19:16:17;8.27;;;4.15;;
27127;SDS011;14660;49.008;8.390;2023-01-31T19:18:46;14.10;;;4.70;;
27127;SDS011;14660;49.008;8.390;2023-01-31T19:21:17;10.50;;;4.90;;
27127;SDS011;14660;49.008;8.390;2023-01-31T19:23:49;16.00;;;5.00;;
27127;SDS011;14660;49.008;8.390;2023-01-31T19:26:18;6.97;;;4.20;;
27127;SDS011;14660;49.008;8.390;2023-01-31T19:28:46;7.53;;;3.80;;
27127;SDS011;14660;49.008;8.390;2023-01-31T19:31:14;7.43;;;4.05;;
27127;SDS011;14660;49.008;8.390;2023-01-31T19:33:46;7.78;;;4.53;;
27127;SDS011;14660;49.008;8.390;2023-01-31T19:36:16;6.03;;;4.45;;
27127;SDS011;14660;49.008;8.390;2023-01-31T19:38:45;8.93;;;5.07;;
27127;SDS011;14660;49.008;8.390;2023-01-31T19:41:14;6.32;;;3.72;;